createdAt,value
2023-04-22T00:01:00.315Z,75.23
2023-04-22T00:04:50.339Z,75.19
2023-04-22T00:08:40.464Z,75.46
2023-04-22T00:12:28.726Z,75.48
2023-04-22T00:16:16.707Z,75.66
2023-04-22T00:20:04.733Z,75.83
2023-04-22T00:23:55.504Z,75.67
2023-04-22T00:27:43.502Z,76.00
2023-04-22T00:31:31.507Z,76.17
2023-04-22T00:35:19.386Z,76.13
2023-04-22T00:39:13.225Z,76.47
2023-04-22T00:43:00.978Z,76.72
2023-04-22T00:46:48.969Z,77.10
2023-04-22T00:50:36.882Z,77.22
2023-04-22T00:54:24.654Z,77.40
2023-04-22T00:58:12.416Z,77.55
2023-04-22T01:02:00.375Z,77.67
2023-04-22T01:05:48.234Z,77.76
2023-04-22T01:09:37.180Z,77.87
2023-04-22T01:13:25.155Z,78.08
2023-04-22T01:17:13.979Z,77.89
2023-04-22T01:21:01.895Z,77.85
2023-04-22T01:24:49.722Z,78.11
2023-04-22T01:28:27.779Z,78.01
2023-04-22T01:32:15.620Z,78.05
2023-04-22T01:36:05.839Z,78.15
2023-04-22T01:39:53.636Z,78.25
2023-04-22T01:43:32.332Z,78.54
2023-04-22T01:47:20.202Z,78.61
2023-04-22T01:51:08.215Z,78.66
2023-04-22T01:54:56.000Z,78.64
2023-04-22T01:58:45.189Z,78.61
2023-04-22T02:02:34.218Z,78.62
2023-04-22T02:06:22.166Z,78.43
2023-04-22T02:10:09.952Z,78.54
2023-04-22T02:13:57.823Z,78.61
2023-04-22T02:17:45.625Z,78.61
2023-04-22T02:21:33.640Z,78.97
2023-04-22T02:25:21.410Z,79.50
2023-04-22T02:29:09.166Z,79.35
2023-04-22T02:32:57.036Z,79.47
2023-04-22T02:36:45.184Z,79.80
2023-04-22T02:40:33.375Z,79.39
2023-04-22T02:44:21.181Z,79.35
2023-04-22T02:48:08.941Z,79.26
2023-04-22T02:51:56.750Z,79.35
2023-04-22T02:55:44.589Z,79.16
2023-04-22T02:59:33.385Z,79.46
2023-04-22T03:03:21.546Z,79.57
2023-04-22T03:07:09.468Z,79.81
2023-04-22T03:10:57.576Z,80.03
2023-04-22T03:14:45.601Z,79.88
2023-04-22T03:18:35.090Z,80.09
2023-04-22T03:22:22.933Z,80.13
2023-04-22T03:26:12.867Z,80.34
2023-04-22T03:30:00.706Z,80.25
2023-04-22T03:33:49.318Z,80.07
2023-04-22T03:37:37.240Z,80.28
2023-04-22T03:41:26.522Z,80.25
2023-04-22T03:45:14.536Z,80.33
2023-04-22T03:49:02.745Z,80.06
2023-04-22T03:52:50.555Z,78.54
2023-04-22T03:56:38.371Z,76.82
2023-04-22T04:00:26.319Z,74.29
2023-04-22T04:04:15.426Z,71.59
2023-04-22T04:08:04.076Z,68.32
2023-04-22T04:11:51.902Z,65.03
2023-04-22T04:15:40.210Z,62.59
2023-04-22T04:19:30.596Z,60.04
2023-04-22T04:23:18.414Z,57.59
2023-04-22T04:27:06.436Z,55.63
2023-04-22T04:30:54.219Z,54.21
2023-04-22T04:34:42.432Z,53.04
2023-04-22T04:38:30.429Z,52.13
2023-04-22T04:42:18.349Z,50.78
2023-04-22T04:46:08.427Z,49.70
2023-04-22T04:49:56.258Z,49.05
2023-04-22T04:53:44.182Z,48.27
2023-04-22T04:57:32.096Z,47.40
2023-04-22T05:01:20.272Z,47.04
2023-04-22T05:05:08.190Z,46.61
2023-04-22T05:08:56.150Z,45.69
2023-04-22T05:12:43.977Z,45.40
2023-04-22T05:16:26.779Z,45.36
2023-04-22T05:20:14.682Z,44.96
2023-04-22T05:24:02.473Z,44.75
2023-04-22T05:27:42.964Z,44.98
2023-04-22T05:31:31.147Z,44.52
2023-04-22T05:35:12.396Z,44.51
2023-04-22T05:39:00.514Z,44.55
2023-04-22T05:42:48.300Z,44.32
2023-04-22T05:46:36.218Z,44.19
2023-04-22T05:50:24.254Z,43.96
2023-04-22T05:54:12.112Z,43.84
2023-04-22T05:58:00.008Z,43.97
2023-04-22T06:01:53.731Z,43.85
2023-04-22T06:05:42.187Z,43.09
2023-04-22T06:09:30.076Z,42.73
2023-04-22T06:13:17.920Z,41.87
2023-04-22T06:17:05.766Z,41.56
2023-04-22T06:20:53.534Z,41.41
2023-04-22T06:24:41.507Z,41.12
2023-04-22T06:28:29.476Z,40.93
2023-04-22T06:32:17.273Z,40.35
2023-04-22T06:35:49.874Z,39.74
2023-04-22T06:39:30.849Z,39.72
2023-04-22T06:43:33.998Z,40.05
2023-04-22T06:46:57.870Z,39.87
2023-04-22T06:50:49.141Z,39.75
2023-04-22T06:54:37.043Z,39.71
2023-04-22T06:58:24.865Z,39.39
2023-04-22T07:02:12.740Z,39.10
2023-04-22T07:06:00.584Z,39.07
2023-04-22T07:09:48.527Z,39.24
2023-04-22T07:13:36.779Z,39.44
2023-04-22T07:17:24.590Z,39.45
2023-04-22T07:21:13.729Z,39.71
2023-04-22T07:25:01.618Z,40.03
2023-04-22T07:28:49.437Z,40.40
2023-04-22T07:32:37.331Z,40.55
2023-04-22T07:36:25.152Z,40.52
2023-04-22T07:40:15.096Z,40.83
2023-04-22T07:44:05.016Z,41.42
2023-04-22T07:47:52.926Z,41.54
2023-04-22T07:51:40.761Z,41.54
2023-04-22T07:55:30.000Z,41.59
2023-04-22T07:59:18.547Z,42.03
2023-04-22T08:03:08.448Z,42.67
2023-04-22T08:06:56.422Z,43.12
2023-04-22T08:10:45.185Z,43.02
2023-04-22T08:14:33.092Z,42.81
2023-04-22T08:18:21.019Z,42.60
2023-04-22T08:22:08.776Z,42.75
2023-04-22T08:25:56.593Z,43.38
2023-04-22T08:29:44.747Z,42.58
2023-04-22T08:33:32.960Z,41.57
2023-04-22T08:37:20.689Z,41.73
2023-04-22T08:41:14.837Z,41.42
2023-04-22T08:45:02.655Z,40.76
2023-04-22T08:48:52.846Z,40.34
2023-04-22T08:52:40.881Z,40.23
2023-04-22T08:56:28.761Z,39.82
2023-04-22T09:00:16.590Z,40.00
2023-04-22T09:04:04.923Z,39.49
2023-04-22T09:07:52.757Z,39.67
2023-04-22T09:11:42.696Z,39.05
2023-04-22T09:15:30.619Z,39.17
2023-04-22T09:19:24.134Z,38.97
2023-04-22T09:23:27.142Z,38.16
2023-04-22T09:27:14.961Z,36.76
2023-04-22T09:31:02.922Z,36.59
2023-04-22T09:34:41.791Z,36.82
2023-04-22T09:38:28.691Z,36.63
2023-04-22T09:42:16.949Z,36.42
2023-04-22T09:45:48.112Z,35.44
2023-04-22T09:49:36.641Z,34.75
2023-04-22T09:53:24.521Z,34.24
2023-04-22T09:57:28.450Z,34.25
2023-04-22T10:01:16.538Z,34.24
2023-04-22T10:05:04.406Z,33.82
2023-04-22T10:08:52.169Z,33.77
2023-04-22T10:12:40.626Z,32.52
2023-04-22T10:16:30.979Z,32.08
2023-04-22T10:20:18.807Z,31.76
2023-04-22T10:24:06.673Z,30.34
2023-04-22T10:27:57.385Z,29.24
2023-04-22T10:31:47.845Z,28.48
2023-04-22T10:35:47.817Z,28.05
2023-04-22T10:39:35.826Z,28.50
2023-04-22T10:43:26.627Z,27.94
2023-04-22T10:47:32.741Z,27.43
2023-04-22T10:51:24.196Z,27.13
2023-04-22T10:53:56.012Z,26.24
2023-04-22T10:56:23.475Z,26.27
2023-04-22T10:59:01.446Z,26.41
2023-04-22T11:01:35.066Z,25.40
2023-04-22T11:04:26.891Z,25.23
2023-04-22T11:07:40.190Z,24.39
2023-04-22T11:10:09.181Z,23.69
2023-04-22T11:12:50.158Z,23.45
2023-04-22T11:15:19.432Z,23.64
2023-04-22T11:17:47.747Z,23.35
2023-04-22T11:20:18.499Z,23.31
2023-04-22T11:23:08.121Z,23.52
2023-04-22T11:25:41.490Z,23.59
2023-04-22T11:28:28.268Z,23.50
2023-04-22T11:31:09.995Z,23.71
2023-04-22T11:33:44.111Z,23.98
2023-04-22T11:36:43.440Z,24.21
2023-04-22T11:39:22.771Z,24.64
2023-04-22T11:42:13.843Z,25.05
2023-04-22T11:45:39.351Z,25.35
2023-04-22T11:49:21.286Z,25.45
2023-04-22T11:53:24.848Z,25.86
2023-04-22T11:57:12.611Z,26.80
2023-04-22T12:00:32.641Z,26.45
2023-04-22T12:03:17.494Z,26.35
2023-04-22T12:05:58.537Z,25.54
2023-04-22T12:08:46.899Z,25.29
2023-04-22T12:11:24.767Z,25.61
2023-04-22T12:13:58.767Z,25.53
2023-04-22T12:17:28.053Z,24.50
2023-04-22T12:20:08.873Z,24.62
2023-04-22T12:22:41.225Z,24.85
2023-04-22T12:25:09.517Z,24.36
2023-04-22T12:28:34.895Z,24.08
2023-04-22T12:31:10.687Z,24.22
2023-04-22T12:33:41.898Z,23.96
2023-04-22T12:36:09.037Z,24.30
2023-04-22T12:38:38.813Z,24.26
2023-04-22T12:41:16.110Z,24.31
2023-04-22T12:43:48.599Z,24.53
2023-04-22T12:46:16.308Z,24.74
2023-04-22T12:48:46.091Z,24.68
2023-04-22T12:52:17.143Z,24.65
2023-04-22T12:56:07.440Z,24.65
2023-04-22T12:59:48.454Z,24.68
2023-04-22T13:03:36.145Z,24.03
2023-04-22T13:07:24.141Z,23.67
2023-04-22T13:11:12.080Z,23.91
2023-04-22T13:14:59.864Z,23.96
2023-04-22T13:18:47.768Z,24.22
2023-04-22T13:22:36.029Z,23.77
2023-04-22T13:26:23.030Z,23.08
2023-04-22T13:30:04.008Z,21.70
2023-04-22T13:33:54.381Z,21.27
2023-04-22T13:37:21.031Z,20.43
2023-04-22T13:40:49.901Z,19.83
2023-04-22T13:43:59.089Z,19.03
2023-04-22T13:47:20.174Z,18.90
2023-04-22T13:50:59.014Z,17.98
2023-04-22T13:54:46.799Z,17.63
2023-04-22T13:58:35.340Z,17.25
2023-04-22T14:02:24.594Z,16.41
2023-04-22T16:30:47.106Z,25.33
2023-04-22T16:33:14.129Z,25.63
2023-04-22T16:35:41.035Z,26.17
2023-04-22T16:38:08.043Z,27.31
2023-04-22T16:40:36.913Z,28.34
2023-04-22T16:43:04.648Z,28.67
2023-04-22T16:45:31.635Z,28.73
2023-04-22T16:47:58.620Z,29.14
2023-04-22T16:50:25.559Z,29.89
2023-04-22T16:52:53.105Z,30.05
2023-04-22T16:55:20.199Z,30.53
2023-04-22T16:57:50.011Z,31.22
2023-04-22T17:00:17.566Z,31.60
2023-04-22T17:02:44.910Z,31.57
2023-04-22T17:05:12.015Z,32.10
2023-04-22T17:07:39.188Z,32.47
2023-04-22T17:10:07.387Z,33.26
2023-04-22T17:12:34.522Z,33.74
2023-04-22T17:15:01.354Z,33.90
2023-04-22T17:17:28.501Z,33.66
2023-04-22T17:19:55.313Z,34.21
2023-04-22T17:22:24.225Z,34.99
2023-04-22T17:24:51.353Z,35.76
2023-04-22T17:27:18.218Z,36.31
2023-04-22T17:29:45.910Z,36.69
2023-04-22T17:32:12.791Z,37.29
2023-04-22T17:34:39.942Z,37.59
2023-04-22T17:37:07.157Z,37.88
2023-04-22T17:39:34.000Z,38.03
2023-04-22T17:42:01.914Z,38.61
2023-04-22T17:44:29.012Z,39.29
2023-04-22T17:46:55.867Z,39.31
2023-04-22T17:49:22.733Z,39.12
2023-04-22T17:51:49.772Z,38.18
2023-04-22T17:54:16.737Z,37.52
2023-04-22T17:56:43.870Z,37.86
2023-04-22T17:59:10.818Z,38.76
2023-04-22T18:01:38.498Z,39.66
2023-04-22T18:04:05.937Z,40.07
2023-04-22T18:06:33.298Z,40.66
2023-04-22T18:09:00.129Z,41.17
2023-04-22T18:11:27.359Z,41.96
2023-04-22T18:13:54.621Z,42.20
2023-04-22T18:16:21.484Z,42.73
2023-04-22T18:18:48.513Z,42.85
2023-04-22T18:21:15.527Z,43.24
2023-04-22T18:23:42.320Z,43.37
2023-04-22T18:26:10.711Z,43.43
2023-04-22T18:28:42.916Z,43.98
2023-04-22T18:31:09.789Z,43.39
2023-04-22T18:33:38.545Z,42.71
2023-04-22T18:36:06.231Z,42.40
2023-04-22T18:38:33.080Z,42.55
2023-04-22T18:40:59.904Z,42.92
2023-04-22T18:43:26.713Z,43.37
2023-04-22T18:45:53.463Z,43.55
2023-04-22T18:48:21.782Z,43.83
2023-04-22T18:50:48.624Z,44.60
2023-04-22T18:53:16.592Z,46.05
2023-04-22T18:55:43.614Z,47.00
2023-04-22T18:58:10.479Z,47.61
2023-04-22T19:00:37.350Z,47.74
2023-04-22T19:03:04.362Z,48.36
2023-04-22T19:05:31.689Z,48.69
2023-04-22T19:07:58.908Z,49.04
2023-04-22T19:10:26.169Z,48.88
2023-04-22T19:12:53.136Z,49.15
2023-04-22T19:15:20.890Z,49.72
2023-04-22T19:17:47.897Z,49.54
2023-04-22T19:20:14.758Z,49.44
2023-04-22T19:22:43.123Z,49.75
2023-04-22T19:25:11.345Z,49.86
2023-04-22T19:27:38.835Z,49.56
2023-04-22T19:30:06.198Z,49.36
2023-04-22T19:32:34.262Z,49.29
2023-04-22T19:35:03.678Z,49.57
2023-04-22T19:37:31.536Z,49.67
2023-04-22T19:39:58.333Z,49.69
2023-04-22T19:42:25.328Z,49.77
2023-04-22T19:44:52.154Z,49.97
2023-04-22T19:47:19.067Z,50.77
2023-04-22T19:49:46.169Z,51.29
2023-04-22T19:52:14.784Z,51.72
2023-04-22T19:54:41.638Z,52.26
2023-04-22T19:57:09.682Z,52.93
2023-04-22T19:59:40.962Z,52.87
2023-04-22T20:02:09.250Z,52.81
2023-04-22T20:04:37.188Z,52.77
2023-04-22T20:07:04.020Z,53.26
2023-04-22T20:09:31.154Z,53.67
2023-04-22T20:11:58.995Z,53.66
2023-04-22T20:14:26.080Z,53.50
2023-04-22T20:16:53.747Z,53.50
2023-04-22T20:19:20.701Z,54.01
2023-04-22T20:21:47.723Z,54.35
2023-04-22T20:24:19.148Z,54.73
2023-04-22T20:26:47.356Z,55.42
2023-04-22T20:29:16.886Z,55.61
2023-04-22T20:31:43.760Z,55.91
2023-04-22T20:34:10.831Z,56.41
2023-04-22T20:36:38.420Z,56.93
2023-04-22T20:39:05.407Z,57.17
2023-04-22T20:41:40.547Z,57.55
2023-04-22T20:44:07.974Z,57.99
2023-04-22T20:46:34.907Z,58.26
2023-04-22T20:49:01.869Z,57.93
2023-04-22T20:51:29.141Z,57.28
2023-04-22T20:53:55.973Z,57.57
2023-04-22T20:56:24.386Z,57.65
2023-04-22T20:58:51.333Z,57.90
2023-04-22T21:01:18.945Z,58.15
2023-04-22T21:03:51.292Z,57.97
2023-04-22T21:06:18.679Z,57.86
2023-04-22T21:08:48.104Z,58.25
2023-04-22T21:11:15.116Z,58.34
2023-04-22T21:13:44.774Z,58.15
2023-04-22T21:16:12.735Z,58.17
2023-04-22T21:18:40.774Z,58.46
2023-04-22T21:21:07.728Z,58.01
2023-04-22T21:23:34.663Z,58.37
2023-04-22T21:26:01.923Z,58.94
2023-04-22T21:28:29.454Z,59.19
2023-04-22T21:30:56.556Z,59.45
2023-04-22T21:33:24.677Z,59.52
2023-04-22T21:35:51.659Z,59.57
2023-04-22T21:38:19.243Z,59.60
2023-04-22T21:40:49.271Z,59.27
2023-04-22T21:43:16.242Z,59.21
2023-04-22T21:45:42.991Z,59.77
2023-04-22T21:48:09.909Z,60.38
2023-04-22T21:50:36.979Z,60.79
2023-04-22T21:53:03.780Z,60.87
2023-04-22T21:55:30.730Z,60.80
2023-04-22T21:57:57.767Z,60.92
2023-04-22T22:00:25.370Z,61.22
2023-04-22T22:02:52.488Z,61.63
2023-04-22T22:05:19.422Z,61.62
2023-04-22T22:07:46.438Z,62.03
2023-04-22T22:10:15.772Z,62.35
2023-04-22T22:12:42.905Z,62.48
2023-04-22T22:15:10.988Z,62.85
